El Hierro > ESTACION METEOROLÓGICA El Roque - El Pinar

DATOS ACTUALES Online

Ultima actulizacion 32 minutos

15.3 ºC

Temperatura

82

Humedad (%)

932.3

Presión (mb)

0

Precipitación (mm)

11.9 SW

Viento (Km/h)

DATOS DIARIOS

Temperatura últimas 24 horas (ºC)

Humedad últimas 24 horas (%)

Presión atmosférica últimas 24 horas (mb)

Precipitaciones últimas 23 horas (mm)

Viento últimas 24 horas (Km/h)

Hora Temperatura (°C) ºC Precipitación (mm) mm Presión (mb) mb Humedad (%) % Viento (Km/h) km/h
28 - 10:00 16.9 0 931 78 11.9 NW
28 - 11:00 16.9 0 932 79 9 SW
28 - 12:00 16.2 0 932 81 14.8 W
28 - 13:00 16.4 0 932 80 11.2 W
28 - 14:00 17.5 0 932 77 13 S
28 - 15:00 17.6 0 932 76 9.4 S
28 - 16:00 17.9 0 932 73 14 SW
28 - 17:00 18.3 0 931 68 10.1 SW
28 - 18:00 18.9 0 931 64 4.3 S
28 - 19:00 17.3 0 931 72 6.5 W
28 - 20:00 15.7 0 931 79 18.4 SW
28 - 21:00 15.1 0 932 84 7.9 S
28 - 22:00 14.9 0 932 85 7.6 S
28 - 23:00 14.8 0 932 89 10.8 SW
29 - 00:00 14.2 0 932 86 7.9 SW
29 - 01:00 14.4 0 932 85 13.7 W
29 - 02:00 14.4 0 931 87 9.4 SW
29 - 03:00 14.1 0 931 86 3.2 NO
29 - 04:00 14.3 0 931 85 12.2 W
29 - 05:00 14.6 0 931 85 10.8 W
29 - 06:00 14.4 0 931 84 17.6 SW
29 - 07:00 14.2 0 931 85 14 W
29 - 08:00 14.5 0 932 89 5.4 SW
29 - 09:00 14.6 0 932 88 13.3 S
29 - 10:00 15.3 0 932 82 11.9 SW
Apalmet utiliza cookies propias y de terceros para mejorar la usabilidad y la experiencia web. Política de cookies.